sensor_id;sensor_type;location;lat;lon;timestamp;pressure;altitude;pressure_sealevel;temperature;humidity
11347;BME280;5728;42.722;23.258;2022-09-09T00:01:59;94981.78;;;18.32;82.63
11347;BME280;5728;42.722;23.258;2022-09-09T00:04:29;94972.72;;;17.97;83.84
11347;BME280;5728;42.722;23.258;2022-09-09T00:07:03;94975.50;;;17.93;84.40
11347;BME280;5728;42.722;23.258;2022-09-09T00:09:36;94964.81;;;17.77;84.88
11347;BME280;5728;42.722;23.258;2022-09-09T00:12:11;94968.03;;;17.39;87.08
11347;BME280;5728;42.722;23.258;2022-09-09T00:14:45;94964.47;;;17.63;86.02
11347;BME280;5728;42.722;23.258;2022-09-09T00:17:26;94962.72;;;17.85;84.63
11347;BME280;5728;42.722;23.258;2022-09-09T00:20:03;94950.88;;;17.97;83.54
11347;BME280;5728;42.722;23.258;2022-09-09T00:22:32;94946.84;;;18.10;82.97
11347;BME280;5728;42.722;23.258;2022-09-09T00:25:10;94938.38;;;18.23;82.27
11347;BME280;5728;42.722;23.258;2022-09-09T00:27:42;94933.78;;;18.28;82.24
11347;BME280;5728;42.722;23.258;2022-09-09T00:30:16;94935.22;;;18.35;80.57
11347;BME280;5728;42.722;23.258;2022-09-09T00:32:47;94915.16;;;18.34;80.62
11347;BME280;5728;42.722;23.258;2022-09-09T00:35:17;94923.03;;;18.34;81.93
11347;BME280;5728;42.722;23.258;2022-09-09T00:37:46;94928.50;;;18.50;81.45
11347;BME280;5728;42.722;23.258;2022-09-09T00:40:23;94921.63;;;18.46;81.76
11347;BME280;5728;42.722;23.258;2022-09-09T00:43:06;94927.94;;;18.42;81.53
11347;BME280;5728;42.722;23.258;2022-09-09T00:48:48;94945.00;;;18.12;82.95
11347;BME280;5728;42.722;23.258;2022-09-09T00:51:25;94938.22;;;17.64;85.19
11347;BME280;5728;42.722;23.258;2022-09-09T00:54:12;94933.56;;;17.71;84.37
11347;BME280;5728;42.722;23.258;2022-09-09T00:56:47;94925.69;;;17.71;84.28
11347;BME280;5728;42.722;23.258;2022-09-09T00:59:25;94937.41;;;17.84;83.71
11347;BME280;5728;42.722;23.258;2022-09-09T01:01:54;94931.38;;;17.60;84.96
11347;BME280;5728;42.722;23.258;2022-09-09T01:04:29;94929.41;;;17.44;85.68
11347;BME280;5728;42.722;23.258;2022-09-09T01:07:11;94929.41;;;17.44;85.68
11347;BME280;5728;42.722;23.258;2022-09-09T01:09:50;94936.47;;;17.42;85.89
11347;BME280;5728;42.722;23.258;2022-09-09T01:12:25;94938.53;;;17.57;85.15
11347;BME280;5728;42.722;23.258;2022-09-09T01:14:58;94940.41;;;17.53;84.64
11347;BME280;5728;42.722;23.258;2022-09-09T01:17:30;94938.84;;;17.48;85.46
11347;BME280;5728;42.722;23.258;2022-09-09T01:20:08;94931.69;;;17.30;86.31
11347;BME280;5728;42.722;23.258;2022-09-09T01:22:42;94930.03;;;17.27;86.58
11347;BME280;5728;42.722;23.258;2022-09-09T01:25:20;94929.88;;;17.32;86.09
11347;BME280;5728;42.722;23.258;2022-09-09T01:27:51;94932.91;;;17.43;85.06
11347;BME280;5728;42.722;23.258;2022-09-09T01:30:20;94937.34;;;17.64;84.82
11347;BME280;5728;42.722;23.258;2022-09-09T01:32:49;94942.72;;;17.61;84.55
11347;BME280;5728;42.722;23.258;2022-09-09T01:35:27;94945.78;;;17.72;84.24
11347;BME280;5728;42.722;23.258;2022-09-09T01:37:55;94949.59;;;17.85;83.65
11347;BME280;5728;42.722;23.258;2022-09-09T01:40:22;94949.38;;;18.11;83.17
11347;BME280;5728;42.722;23.258;2022-09-09T01:42:51;94948.66;;;18.08;83.01
11347;BME280;5728;42.722;23.258;2022-09-09T01:45:18;94945.81;;;17.70;84.55
11347;BME280;5728;42.722;23.258;2022-09-09T01:47:46;94946.69;;;17.48;85.83
11347;BME280;5728;42.722;23.258;2022-09-09T01:50:15;94949.06;;;17.55;85.76
11347;BME280;5728;42.722;23.258;2022-09-09T01:52:44;94952.28;;;17.83;84.76
11347;BME280;5728;42.722;23.258;2022-09-09T01:55:13;94955.97;;;17.79;84.04
11347;BME280;5728;42.722;23.258;2022-09-09T01:57:45;94965.91;;;17.71;84.32
11347;BME280;5728;42.722;23.258;2022-09-09T02:00:18;94951.81;;;17.74;83.65
11347;BME280;5728;42.722;23.258;2022-09-09T02:02:51;94947.72;;;17.67;83.83
11347;BME280;5728;42.722;23.258;2022-09-09T02:05:30;94948.44;;;17.70;83.43
11347;BME280;5728;42.722;23.258;2022-09-09T02:08:05;94939.56;;;17.74;82.99
11347;BME280;5728;42.722;23.258;2022-09-09T02:10:37;94936.00;;;17.75;82.55
11347;BME280;5728;42.722;23.258;2022-09-09T02:13:10;94921.81;;;17.59;83.79
11347;BME280;5728;42.722;23.258;2022-09-09T02:15:42;94933.56;;;17.71;82.87
11347;BME280;5728;42.722;23.258;2022-09-09T02:18:13;94935.53;;;17.66;83.65
11347;BME280;5728;42.722;23.258;2022-09-09T02:20:42;94927.94;;;17.37;84.81
11347;BME280;5728;42.722;23.258;2022-09-09T02:23:11;94931.16;;;16.98;87.56
11347;BME280;5728;42.722;23.258;2022-09-09T02:25:40;94937.38;;;16.96;87.56
11347;BME280;5728;42.722;23.258;2022-09-09T02:28:09;94948.00;;;17.14;86.80
11347;BME280;5728;42.722;23.258;2022-09-09T02:30:40;94954.09;;;17.15;86.02
11347;BME280;5728;42.722;23.258;2022-09-09T02:33:09;94946.03;;;17.19;86.14
11347;BME280;5728;42.722;23.258;2022-09-09T02:35:38;94951.53;;;17.37;85.40
11347;BME280;5728;42.722;23.258;2022-09-09T02:38:10;94954.72;;;17.21;85.79
11347;BME280;5728;42.722;23.258;2022-09-09T02:40:38;94964.75;;;17.34;84.99
11347;BME280;5728;42.722;23.258;2022-09-09T02:43:05;94957.00;;;17.07;86.02
11347;BME280;5728;42.722;23.258;2022-09-09T02:45:36;94959.31;;;16.92;87.27
11347;BME280;5728;42.722;23.258;2022-09-09T02:48:14;94955.19;;;16.86;87.08
11347;BME280;5728;42.722;23.258;2022-09-09T02:50:48;94953.00;;;16.97;87.07
11347;BME280;5728;42.722;23.258;2022-09-09T02:53:23;94950.75;;;17.11;85.92
11347;BME280;5728;42.722;23.258;2022-09-09T02:55:55;94952.53;;;17.09;85.90
11347;BME280;5728;42.722;23.258;2022-09-09T02:58:24;94959.41;;;16.90;86.39
11347;BME280;5728;42.722;23.258;2022-09-09T03:00:52;94951.88;;;17.04;85.96
11347;BME280;5728;42.722;23.258;2022-09-09T03:03:20;94954.16;;;17.13;85.59
11347;BME280;5728;42.722;23.258;2022-09-09T03:05:47;94955.75;;;17.17;85.44
11347;BME280;5728;42.722;23.258;2022-09-09T03:08:14;94953.81;;;16.99;85.98
11347;BME280;5728;42.722;23.258;2022-09-09T03:10:41;94952.31;;;17.15;85.17
11347;BME280;5728;42.722;23.258;2022-09-09T03:13:08;94957.16;;;17.26;85.16
11347;BME280;5728;42.722;23.258;2022-09-09T03:15:35;94954.25;;;17.34;84.75
11347;BME280;5728;42.722;23.258;2022-09-09T03:18:02;94950.84;;;17.32;84.32
11347;BME280;5728;42.722;23.258;2022-09-09T03:20:31;94963.69;;;17.38;84.25
11347;BME280;5728;42.722;23.258;2022-09-09T03:22:59;94952.41;;;17.36;84.36
11347;BME280;5728;42.722;23.258;2022-09-09T03:25:26;94951.63;;;17.34;84.38
11347;BME280;5728;42.722;23.258;2022-09-09T03:27:54;94948.25;;;17.30;84.35
11347;BME280;5728;42.722;23.258;2022-09-09T03:30:21;94945.97;;;17.44;83.70
11347;BME280;5728;42.722;23.258;2022-09-09T03:32:48;94945.47;;;17.35;84.17
11347;BME280;5728;42.722;23.258;2022-09-09T03:35:16;94943.44;;;16.73;87.04
11347;BME280;5728;42.722;23.258;2022-09-09T03:37:44;94946.69;;;16.80;87.63
11347;BME280;5728;42.722;23.258;2022-09-09T03:40:11;94945.41;;;16.67;88.07
11347;BME280;5728;42.722;23.258;2022-09-09T03:42:39;94947.13;;;16.68;88.68
11347;BME280;5728;42.722;23.258;2022-09-09T03:45:08;94945.00;;;16.79;87.41
11347;BME280;5728;42.722;23.258;2022-09-09T03:47:36;94954.25;;;16.87;87.46
11347;BME280;5728;42.722;23.258;2022-09-09T03:50:04;94956.78;;;17.13;86.38
11347;BME280;5728;42.722;23.258;2022-09-09T03:52:34;94961.44;;;17.29;86.78
11347;BME280;5728;42.722;23.258;2022-09-09T03:55:04;94964.63;;;17.37;86.83
11347;BME280;5728;42.722;23.258;2022-09-09T03:57:31;94955.22;;;17.54;86.73
11347;BME280;5728;42.722;23.258;2022-09-09T04:00:00;94954.66;;;17.68;86.17
11347;BME280;5728;42.722;23.258;2022-09-09T04:02:28;94963.84;;;17.79;84.75
11347;BME280;5728;42.722;23.258;2022-09-09T04:04:55;94958.94;;;17.92;83.60
11347;BME280;5728;42.722;23.258;2022-09-09T04:07:22;94961.97;;;18.03;82.20
11347;BME280;5728;42.722;23.258;2022-09-09T04:09:49;94970.16;;;17.96;83.09
11347;BME280;5728;42.722;23.258;2022-09-09T04:12:17;94956.53;;;18.08;82.75
11347;BME280;5728;42.722;23.258;2022-09-09T04:14:44;94952.44;;;18.01;82.41
11347;BME280;5728;42.722;23.258;2022-09-09T04:17:11;94954.88;;;18.05;80.86
11347;BME280;5728;42.722;23.258;2022-09-09T04:19:37;94959.47;;;18.00;81.79
11347;BME280;5728;42.722;23.258;2022-09-09T04:22:04;94958.94;;;17.92;81.60
11347;BME280;5728;42.722;23.258;2022-09-09T04:24:31;94959.09;;;17.88;82.15
11347;BME280;5728;42.722;23.258;2022-09-09T04:26:57;94961.97;;;18.03;82.05
11347;BME280;5728;42.722;23.258;2022-09-09T04:29:26;94966.34;;;18.03;81.02
11347;BME280;5728;42.722;23.258;2022-09-09T04:31:52;94957.81;;;17.98;82.07
11347;BME280;5728;42.722;23.258;2022-09-09T04:34:19;94963.50;;;17.42;83.57
11347;BME280;5728;42.722;23.258;2022-09-09T04:36:46;94964.94;;;17.51;83.59
11347;BME280;5728;42.722;23.258;2022-09-09T04:39:13;94967.16;;;17.16;85.04
11347;BME280;5728;42.722;23.258;2022-09-09T04:41:40;94961.44;;;17.05;86.30
11347;BME280;5728;42.722;23.258;2022-09-09T04:44:06;94966.22;;;16.71;88.04
11347;BME280;5728;42.722;23.258;2022-09-09T04:46:35;94963.91;;;16.62;87.92
11347;BME280;5728;42.722;23.258;2022-09-09T04:49:01;94959.28;;;16.44;89.77
11347;BME280;5728;42.722;23.258;2022-09-09T04:51:28;94950.91;;;16.59;89.74
11347;BME280;5728;42.722;23.258;2022-09-09T04:53:56;94948.75;;;16.95;87.62
11347;BME280;5728;42.722;23.258;2022-09-09T04:56:24;94953.47;;;17.08;86.70
11347;BME280;5728;42.722;23.258;2022-09-09T04:58:52;94946.19;;;17.16;86.67
11347;BME280;5728;42.722;23.258;2022-09-09T05:01:20;94955.53;;;17.23;86.03
11347;BME280;5728;42.722;23.258;2022-09-09T05:03:50;94952.13;;;17.21;86.16
11347;BME280;5728;42.722;23.258;2022-09-09T05:06:20;94942.84;;;17.58;85.29
11347;BME280;5728;42.722;23.258;2022-09-09T05:08:48;94939.00;;;18.08;83.02
11347;BME280;5728;42.722;23.258;2022-09-09T05:11:19;94947.34;;;18.38;82.35
11347;BME280;5728;42.722;23.258;2022-09-09T05:13:47;94949.63;;;18.67;80.56
11347;BME280;5728;42.722;23.258;2022-09-09T05:16:15;94946.81;;;19.10;77.93
11347;BME280;5728;42.722;23.258;2022-09-09T05:18:43;94947.94;;;19.24;77.01
11347;BME280;5728;42.722;23.258;2022-09-09T05:21:14;94944.31;;;19.26;77.19
11347;BME280;5728;42.722;23.258;2022-09-09T05:23:41;94938.88;;;19.49;76.49
11347;BME280;5728;42.722;23.258;2022-09-09T05:26:12;94941.84;;;19.42;76.00
11347;BME280;5728;42.722;23.258;2022-09-09T05:28:39;94942.50;;;19.65;75.51
11347;BME280;5728;42.722;23.258;2022-09-09T05:31:08;94946.16;;;19.80;75.08
11347;BME280;5728;42.722;23.258;2022-09-09T05:33:37;94950.13;;;19.89;74.45
11347;BME280;5728;42.722;23.258;2022-09-09T05:36:07;94947.41;;;19.90;73.78
11347;BME280;5728;42.722;23.258;2022-09-09T05:38:37;94949.31;;;20.22;72.52
11347;BME280;5728;42.722;23.258;2022-09-09T05:41:05;94957.97;;;20.26;72.22
11347;BME280;5728;42.722;23.258;2022-09-09T05:43:31;94946.56;;;20.43;71.83
11347;BME280;5728;42.722;23.258;2022-09-09T05:46:01;94954.00;;;20.69;70.12
11347;BME280;5728;42.722;23.258;2022-09-09T05:48:29;94952.19;;;20.86;69.83
11347;BME280;5728;42.722;23.258;2022-09-09T05:50:57;94957.00;;;20.78;69.17
11347;BME280;5728;42.722;23.258;2022-09-09T05:53:25;94957.72;;;21.15;68.36
11347;BME280;5728;42.722;23.258;2022-09-09T05:56:00;94958.31;;;21.37;67.35
11347;BME280;5728;42.722;23.258;2022-09-09T05:58:29;94964.50;;;21.36;66.85
11347;BME280;5728;42.722;23.258;2022-09-09T06:01:01;94957.41;;;21.21;68.09
11347;BME280;5728;42.722;23.258;2022-09-09T06:03:28;94967.03;;;21.37;67.60
11347;BME280;5728;42.722;23.258;2022-09-09T06:05:59;94966.22;;;21.68;66.70
11347;BME280;5728;42.722;23.258;2022-09-09T06:08:26;94971.25;;;21.73;66.12
11347;BME280;5728;42.722;23.258;2022-09-09T06:10:53;94968.16;;;21.97;65.54
11347;BME280;5728;42.722;23.258;2022-09-09T06:13:21;94968.31;;;22.10;64.32
11347;BME280;5728;42.722;23.258;2022-09-09T06:15:50;94969.06;;;21.96;64.57
11347;BME280;5728;42.722;23.258;2022-09-09T06:18:17;94963.28;;;21.90;65.11
11347;BME280;5728;42.722;23.258;2022-09-09T06:20:53;94973.25;;;22.46;64.01
11347;BME280;5728;42.722;23.258;2022-09-09T06:23:20;94959.56;;;22.69;63.52
11347;BME280;5728;42.722;23.258;2022-09-09T06:25:47;94967.72;;;22.80;63.07
11347;BME280;5728;42.722;23.258;2022-09-09T06:28:14;94962.38;;;22.96;61.96
11347;BME280;5728;42.722;23.258;2022-09-09T06:30:43;94967.56;;;23.11;62.02
11347;BME280;5728;42.722;23.258;2022-09-09T06:33:09;94967.19;;;23.31;61.85
11347;BME280;5728;42.722;23.258;2022-09-09T06:35:36;94961.44;;;23.39;60.69
11347;BME280;5728;42.722;23.258;2022-09-09T06:38:03;94970.03;;;23.57;60.10
11347;BME280;5728;42.722;23.258;2022-09-09T06:40:31;94953.38;;;23.83;58.68
11347;BME280;5728;42.722;23.258;2022-09-09T06:42:59;94954.56;;;23.51;59.24
11347;BME280;5728;42.722;23.258;2022-09-09T06:45:27;94944.31;;;23.16;59.50
11347;BME280;5728;42.722;23.258;2022-09-09T06:47:56;94949.50;;;23.04;60.44
11347;BME280;5728;42.722;23.258;2022-09-09T06:50:23;94958.41;;;23.59;59.16
11347;BME280;5728;42.722;23.258;2022-09-09T06:52:50;94965.50;;;23.73;57.81
11347;BME280;5728;42.722;23.258;2022-09-09T06:55:17;94976.97;;;24.00;57.82
11347;BME280;5728;42.722;23.258;2022-09-09T06:57:44;94967.91;;;23.90;57.75
11347;BME280;5728;42.722;23.258;2022-09-09T07:00:12;94978.53;;;24.31;55.71
11347;BME280;5728;42.722;23.258;2022-09-09T07:02:40;94973.22;;;24.31;55.77
11347;BME280;5728;42.722;23.258;2022-09-09T07:05:08;94967.50;;;24.24;56.01
11347;BME280;5728;42.722;23.258;2022-09-09T07:07:36;94973.03;;;23.93;57.39
11347;BME280;5728;42.722;23.258;2022-09-09T07:10:03;94967.78;;;24.05;57.48
11347;BME280;5728;42.722;23.258;2022-09-09T07:12:30;94955.56;;;24.17;56.23
11347;BME280;5728;42.722;23.258;2022-09-09T07:14:57;94967.34;;;24.52;55.59
11347;BME280;5728;42.722;23.258;2022-09-09T07:17:24;94961.91;;;24.41;55.88
11347;BME280;5728;42.722;23.258;2022-09-09T07:19:51;94962.59;;;24.97;54.47
11347;BME280;5728;42.722;23.258;2022-09-09T07:22:19;94955.19;;;25.02;52.79
11347;BME280;5728;42.722;23.258;2022-09-09T07:24:46;94950.88;;;24.47;55.11
11347;BME280;5728;42.722;23.258;2022-09-09T07:27:15;94966.13;;;24.70;54.25
11347;BME280;5728;42.722;23.258;2022-09-09T07:29:41;94960.16;;;25.19;52.76
11347;BME280;5728;42.722;23.258;2022-09-09T07:32:08;94951.28;;;25.45;52.60
11347;BME280;5728;42.722;23.258;2022-09-09T07:34:35;94946.03;;;25.56;51.36
11347;BME280;5728;42.722;23.258;2022-09-09T07:37:02;94952.41;;;25.66;51.38
11347;BME280;5728;42.722;23.258;2022-09-09T07:39:30;94953.91;;;25.70;50.99
11347;BME280;5728;42.722;23.258;2022-09-09T07:41:57;94954.41;;;25.75;51.19
11347;BME280;5728;42.722;23.258;2022-09-09T07:44:24;94959.88;;;25.97;49.64
11347;BME280;5728;42.722;23.258;2022-09-09T07:46:52;94968.28;;;25.91;49.91
11347;BME280;5728;42.722;23.258;2022-09-09T07:49:19;94961.84;;;25.70;51.81
11347;BME280;5728;42.722;23.258;2022-09-09T07:51:47;94970.38;;;26.12;49.27
11347;BME280;5728;42.722;23.258;2022-09-09T07:54:16;94968.00;;;26.20;49.38
11347;BME280;5728;42.722;23.258;2022-09-09T07:56:47;94964.28;;;26.10;48.68
11347;BME280;5728;42.722;23.258;2022-09-09T07:59:14;94958.97;;;26.10;49.02
11347;BME280;5728;42.722;23.258;2022-09-09T08:01:43;94955.16;;;26.01;49.76
11347;BME280;5728;42.722;23.258;2022-09-09T08:04:13;94959.50;;;26.62;48.99
11347;BME280;5728;42.722;23.258;2022-09-09T08:06:42;94961.44;;;26.60;47.58
11347;BME280;5728;42.722;23.258;2022-09-09T08:09:09;94964.94;;;26.84;46.65
11347;BME280;5728;42.722;23.258;2022-09-09T08:11:37;94954.41;;;26.59;46.78
11347;BME280;5728;42.722;23.258;2022-09-09T08:14:05;94959.56;;;26.73;47.86
11347;BME280;5728;42.722;23.258;2022-09-09T08:16:35;94949.28;;;27.03;46.06
11347;BME280;5728;42.722;23.258;2022-09-09T08:19:03;94959.44;;;27.09;45.45
11347;BME280;5728;42.722;23.258;2022-09-09T08:21:31;94963.16;;;27.42;45.36
11347;BME280;5728;42.722;23.258;2022-09-09T08:24:00;94955.19;;;27.86;44.78
11347;BME280;5728;42.722;23.258;2022-09-09T08:26:29;94958.56;;;27.88;43.97
11347;BME280;5728;42.722;23.258;2022-09-09T08:28:58;94948.03;;;28.09;43.37
11347;BME280;5728;42.722;23.258;2022-09-09T08:31:29;94948.94;;;28.30;43.67
11347;BME280;5728;42.722;23.258;2022-09-09T08:33:57;94947.31;;;27.62;44.23
11347;BME280;5728;42.722;23.258;2022-09-09T08:36:26;94944.00;;;27.92;45.03
11347;BME280;5728;42.722;23.258;2022-09-09T08:38:55;94945.25;;;27.44;45.39
11347;BME280;5728;42.722;23.258;2022-09-09T08:41:37;94939.44;;;27.50;45.98
11347;BME280;5728;42.722;23.258;2022-09-09T08:44:08;94939.38;;;28.27;45.07
11347;BME280;5728;42.722;23.258;2022-09-09T08:46:46;94931.09;;;28.41;43.65
11347;BME280;5728;42.722;23.258;2022-09-09T08:49:44;94942.00;;;28.81;43.04
11347;BME280;5728;42.722;23.258;2022-09-09T08:52:21;94938.53;;;28.70;42.29
11347;BME280;5728;42.722;23.258;2022-09-09T08:54:50;94933.56;;;28.65;42.68
11347;BME280;5728;42.722;23.258;2022-09-09T08:57:23;94938.56;;;28.47;44.73
11347;BME280;5728;42.722;23.258;2022-09-09T08:59:52;94932.03;;;29.04;41.94
11347;BME280;5728;42.722;23.258;2022-09-09T09:02:26;94934.41;;;28.66;42.29
11347;BME280;5728;42.722;23.258;2022-09-09T09:05:08;94942.81;;;28.61;42.36
11347;BME280;5728;42.722;23.258;2022-09-09T09:07:47;94934.81;;;28.61;42.67
11347;BME280;5728;42.722;23.258;2022-09-09T09:10:31;94938.72;;;28.78;42.27
11347;BME280;5728;42.722;23.258;2022-09-09T09:12:59;94939.94;;;28.85;42.09
11347;BME280;5728;42.722;23.258;2022-09-09T09:15:30;94935.31;;;29.28;42.14
11347;BME280;5728;42.722;23.258;2022-09-09T09:18:03;94935.94;;;30.02;40.67
11347;BME280;5728;42.722;23.258;2022-09-09T09:20:36;94937.38;;;29.76;40.45
11347;BME280;5728;42.722;23.258;2022-09-09T09:23:05;94937.91;;;29.69;40.47
11347;BME280;5728;42.722;23.258;2022-09-09T09:25:35;94932.56;;;29.69;40.55
11347;BME280;5728;42.722;23.258;2022-09-09T09:28:13;94927.25;;;30.19;40.01
11347;BME280;5728;42.722;23.258;2022-09-09T09:30:45;94930.78;;;29.49;40.85
11347;BME280;5728;42.722;23.258;2022-09-09T09:33:19;94923.13;;;29.15;41.96
11347;BME280;5728;42.722;23.258;2022-09-09T09:35:48;94926.63;;;28.74;42.68
11347;BME280;5728;42.722;23.258;2022-09-09T09:38:17;94924.13;;;28.50;43.01
11347;BME280;5728;42.722;23.258;2022-09-09T09:40:49;94918.56;;;27.99;43.71
11347;BME280;5728;42.722;23.258;2022-09-09T09:43:21;94914.56;;;28.47;44.04
11347;BME280;5728;42.722;23.258;2022-09-09T09:45:50;94913.06;;;28.66;42.94
11347;BME280;5728;42.722;23.258;2022-09-09T09:48:18;94900.56;;;28.34;44.66
11347;BME280;5728;42.722;23.258;2022-09-09T09:50:50;94908.56;;;27.47;45.90
11347;BME280;5728;42.722;23.258;2022-09-09T09:53:21;94908.41;;;27.38;45.91
11347;BME280;5728;42.722;23.258;2022-09-09T09:55:55;94900.09;;;27.53;46.15
11347;BME280;5728;42.722;23.258;2022-09-09T09:58:23;94893.00;;;27.97;45.02
11347;BME280;5728;42.722;23.258;2022-09-09T10:00:52;94892.34;;;28.26;44.73
11347;BME280;5728;42.722;23.258;2022-09-09T10:03:25;94900.56;;;28.34;44.04
11347;BME280;5728;42.722;23.258;2022-09-09T10:05:53;94906.63;;;28.36;44.02
11347;BME280;5728;42.722;23.258;2022-09-09T10:08:22;94911.34;;;28.33;44.64
11347;BME280;5728;42.722;23.258;2022-09-09T10:10:59;94919.66;;;28.51;45.10
11347;BME280;5728;42.722;23.258;2022-09-09T10:13:32;94920.66;;;28.07;44.75
11347;BME280;5728;42.722;23.258;2022-09-09T10:16:13;94914.09;;;27.77;45.27
11347;BME280;5728;42.722;23.258;2022-09-09T10:18:57;94917.72;;;27.99;44.69
11347;BME280;5728;42.722;23.258;2022-09-09T10:24:34;94918.13;;;28.37;44.60
11347;BME280;5728;42.722;23.258;2022-09-09T10:27:10;94920.22;;;28.22;44.97
11347;BME280;5728;42.722;23.258;2022-09-09T10:30:09;94920.19;;;28.33;44.17
11347;BME280;5728;42.722;23.258;2022-09-09T10:32:41;94916.66;;;28.44;44.85
11347;BME280;5728;42.722;23.258;2022-09-09T10:35:21;94912.91;;;28.35;44.09
11347;BME280;5728;42.722;23.258;2022-09-09T10:38:02;94921.56;;;28.60;45.19
11347;BME280;5728;42.722;23.258;2022-09-09T10:40:33;94929.00;;;28.02;44.90
11347;BME280;5728;42.722;23.258;2022-09-09T10:43:16;94929.75;;;27.71;46.56
11347;BME280;5728;42.722;23.258;2022-09-09T10:45:58;94922.66;;;27.03;47.99
11347;BME280;5728;42.722;23.258;2022-09-09T10:48:37;94928.81;;;26.69;49.75
11347;BME280;5728;42.722;23.258;2022-09-09T10:51:22;94931.84;;;26.99;49.01
11347;BME280;5728;42.722;23.258;2022-09-09T10:53:58;94932.00;;;27.20;49.70
11347;BME280;5728;42.722;23.258;2022-09-09T10:56:29;94921.38;;;27.31;50.42
11347;BME280;5728;42.722;23.258;2022-09-09T10:59:00;94919.63;;;27.19;50.43
11347;BME280;5728;42.722;23.258;2022-09-09T11:01:32;94913.00;;;27.24;49.29
11347;BME280;5728;42.722;23.258;2022-09-09T11:04:06;94914.22;;;27.20;50.85
11347;BME280;5728;42.722;23.258;2022-09-09T11:06:41;94915.19;;;27.31;49.63
11347;BME280;5728;42.722;23.258;2022-09-09T11:09:15;94920.53;;;27.42;49.52
11347;BME280;5728;42.722;23.258;2022-09-09T11:11:47;94916.88;;;27.20;50.41
11347;BME280;5728;42.722;23.258;2022-09-09T11:14:22;94915.50;;;26.93;51.00
11347;BME280;5728;42.722;23.258;2022-09-09T11:16:53;94912.34;;;26.53;52.32
11347;BME280;5728;42.722;23.258;2022-09-09T11:19:27;94900.47;;;26.57;51.49
11347;BME280;5728;42.722;23.258;2022-09-09T11:21:59;94894.69;;;26.98;51.68
11347;BME280;5728;42.722;23.258;2022-09-09T11:24:33;94901.03;;;26.73;51.38
11347;BME280;5728;42.722;23.258;2022-09-09T11:27:06;94898.38;;;26.73;52.77
11347;BME280;5728;42.722;23.258;2022-09-09T11:30:18;94889.13;;;27.12;51.29
11347;BME280;5728;42.722;23.258;2022-09-09T11:35:58;94867.69;;;27.80;49.46
11347;BME280;5728;42.722;23.258;2022-09-09T11:38:33;94860.47;;;27.71;49.01
11347;BME280;5728;42.722;23.258;2022-09-09T11:41:07;94858.03;;;27.01;51.12
11347;BME280;5728;42.722;23.258;2022-09-09T11:43:39;94847.25;;;27.69;49.57
11347;BME280;5728;42.722;23.258;2022-09-09T11:46:08;94840.56;;;27.86;49.82
11347;BME280;5728;42.722;23.258;2022-09-09T11:48:38;94828.53;;;28.34;49.18
11347;BME280;5728;42.722;23.258;2022-09-09T11:51:09;94830.94;;;28.58;47.95
11347;BME280;5728;42.722;23.258;2022-09-09T11:53:50;94839.72;;;29.11;46.72
11347;BME280;5728;42.722;23.258;2022-09-09T11:56:30;94832.59;;;29.42;46.03
11347;BME280;5728;42.722;23.258;2022-09-09T11:59:00;94843.81;;;28.85;46.90
11347;BME280;5728;42.722;23.258;2022-09-09T12:01:39;94833.03;;;28.34;47.91
11347;BME280;5728;42.722;23.258;2022-09-09T12:04:16;94839.31;;;28.33;47.85
11347;BME280;5728;42.722;23.258;2022-09-09T12:06:45;94830.31;;;29.07;46.72
11347;BME280;5728;42.722;23.258;2022-09-09T12:09:25;94822.59;;;29.84;45.13
11347;BME280;5728;42.722;23.258;2022-09-09T12:12:05;94827.00;;;30.04;44.59
11347;BME280;5728;42.722;23.258;2022-09-09T12:14:36;94810.53;;;30.27;44.39
11347;BME280;5728;42.722;23.258;2022-09-09T12:17:17;94812.53;;;30.16;45.00
11347;BME280;5728;42.722;23.258;2022-09-09T12:19:46;94809.69;;;30.08;45.31
11347;BME280;5728;42.722;23.258;2022-09-09T12:22:20;94815.06;;;29.58;46.53
11347;BME280;5728;42.722;23.258;2022-09-09T12:24:58;94806.59;;;30.03;46.10
11347;BME280;5728;42.722;23.258;2022-09-09T12:27:34;94800.69;;;30.47;45.12
11347;BME280;5728;42.722;23.258;2022-09-09T12:30:07;94803.94;;;30.03;45.82
11347;BME280;5728;42.722;23.258;2022-09-09T12:32:36;94795.03;;;30.21;44.81
11347;BME280;5728;42.722;23.258;2022-09-09T12:35:09;94804.56;;;29.36;47.10
11347;BME280;5728;42.722;23.258;2022-09-09T12:37:39;94800.56;;;28.91;48.56
11347;BME280;5728;42.722;23.258;2022-09-09T12:40:20;94799.16;;;29.47;47.31
11347;BME280;5728;42.722;23.258;2022-09-09T12:42:48;94802.16;;;29.33;47.48
11347;BME280;5728;42.722;23.258;2022-09-09T12:45:17;94789.25;;;29.38;47.63
11347;BME280;5728;42.722;23.258;2022-09-09T12:47:46;94795.22;;;29.61;47.48
11347;BME280;5728;42.722;23.258;2022-09-09T12:52:43;94787.97;;;27.88;52.71
11347;BME280;5728;42.722;23.258;2022-09-09T12:55:18;94774.25;;;27.93;52.32
11347;BME280;5728;42.722;23.258;2022-09-09T12:57:45;94776.22;;;27.79;52.02
11347;BME280;5728;42.722;23.258;2022-09-09T13:00:18;94775.78;;;27.74;52.61
11347;BME280;5728;42.722;23.258;2022-09-09T13:02:51;94769.44;;;27.33;53.52
11347;BME280;5728;42.722;23.258;2022-09-09T13:05:21;94777.69;;;26.85;53.98
11347;BME280;5728;42.722;23.258;2022-09-09T13:07:48;94786.44;;;26.98;53.79
11347;BME280;5728;42.722;23.258;2022-09-09T13:10:23;94782.25;;;26.72;54.02
11347;BME280;5728;42.722;23.258;2022-09-09T13:12:52;94778.19;;;26.90;54.10
11347;BME280;5728;42.722;23.258;2022-09-09T13:15:22;94768.59;;;27.32;52.94
11347;BME280;5728;42.722;23.258;2022-09-09T13:17:57;94766.22;;;26.85;53.39
11347;BME280;5728;42.722;23.258;2022-09-09T13:20:27;94765.19;;;26.52;55.50
11347;BME280;5728;42.722;23.258;2022-09-09T13:22:55;94752.75;;;26.75;54.90
11347;BME280;5728;42.722;23.258;2022-09-09T13:25:26;94752.72;;;26.42;55.93
11347;BME280;5728;42.722;23.258;2022-09-09T13:27:59;94754.84;;;26.26;56.81
11347;BME280;5728;42.722;23.258;2022-09-09T13:30:28;94747.00;;;26.24;57.62
11347;BME280;5728;42.722;23.258;2022-09-09T13:33:20;94746.81;;;26.49;57.68